sensor_id;sensor_type;location;lat;lon;timestamp;temperature;humidity
52036;DHT22;38046;49.448;32.074;2023-04-01T00:00:25;10.80;73.30
52036;DHT22;38046;49.448;32.074;2023-04-01T00:02:51;10.80;73.30
52036;DHT22;38046;49.448;32.074;2023-04-01T00:05:17;10.80;73.40
52036;DHT22;38046;49.448;32.074;2023-04-01T00:07:43;10.80;73.50
52036;DHT22;38046;49.448;32.074;2023-04-01T00:10:10;10.80;73.60
52036;DHT22;38046;49.448;32.074;2023-04-01T00:12:37;10.80;73.70
52036;DHT22;38046;49.448;32.074;2023-04-01T00:15:08;10.80;73.70
52036;DHT22;38046;49.448;32.074;2023-04-01T00:17:35;10.80;73.80
52036;DHT22;38046;49.448;32.074;2023-04-01T00:20:01;10.80;73.70
52036;DHT22;38046;49.448;32.074;2023-04-01T00:22:28;10.80;73.80
52036;DHT22;38046;49.448;32.074;2023-04-01T00:24:53;10.80;73.70
52036;DHT22;38046;49.448;32.074;2023-04-01T00:27:19;10.80;73.60
52036;DHT22;38046;49.448;32.074;2023-04-01T00:29:46;10.90;73.50
52036;DHT22;38046;49.448;32.074;2023-04-01T00:32:13;10.90;73.60
52036;DHT22;38046;49.448;32.074;2023-04-01T00:34:38;10.90;73.60
52036;DHT22;38046;49.448;32.074;2023-04-01T00:37:06;10.90;73.80
52036;DHT22;38046;49.448;32.074;2023-04-01T00:39:32;10.80;73.90
52036;DHT22;38046;49.448;32.074;2023-04-01T00:41:59;10.80;74.20
52036;DHT22;38046;49.448;32.074;2023-04-01T00:44:33;10.80;74.30
52036;DHT22;38046;49.448;32.074;2023-04-01T00:47:00;10.80;74.40
52036;DHT22;38046;49.448;32.074;2023-04-01T00:49:35;10.80;74.50
52036;DHT22;38046;49.448;32.074;2023-04-01T00:52:03;10.70;74.60
52036;DHT22;38046;49.448;32.074;2023-04-01T00:54:31;10.80;74.70
52036;DHT22;38046;49.448;32.074;2023-04-01T00:56:58;10.80;74.70
52036;DHT22;38046;49.448;32.074;2023-04-01T00:59:27;10.80;74.70
52036;DHT22;38046;49.448;32.074;2023-04-01T01:01:55;10.90;74.80
52036;DHT22;38046;49.448;32.074;2023-04-01T01:04:29;10.90;74.70
52036;DHT22;38046;49.448;32.074;2023-04-01T01:10:04;10.90;74.50
52036;DHT22;38046;49.448;32.074;2023-04-01T01:15:41;10.90;74.20
52036;DHT22;38046;49.448;32.074;2023-04-01T01:21:31;11.00;74.80
52036;DHT22;38046;49.448;32.074;2023-04-01T01:24:27;11.00;73.90
52036;DHT22;38046;49.448;32.074;2023-04-01T01:33:02;11.00;74.20
52036;DHT22;38046;49.448;32.074;2023-04-01T01:35:54;10.90;74.10
52036;DHT22;38046;49.448;32.074;2023-04-01T01:38:22;10.90;74.30
52036;DHT22;38046;49.448;32.074;2023-04-01T01:40:51;10.90;74.30
52036;DHT22;38046;49.448;32.074;2023-04-01T01:43:22;10.90;74.40
52036;DHT22;38046;49.448;32.074;2023-04-01T01:45:52;11.00;74.50
52036;DHT22;38046;49.448;32.074;2023-04-01T01:48:20;11.00;74.60
52036;DHT22;38046;49.448;32.074;2023-04-01T01:50:46;11.00;74.70
52036;DHT22;38046;49.448;32.074;2023-04-01T01:53:14;11.00;74.70
52036;DHT22;38046;49.448;32.074;2023-04-01T01:55:45;11.00;75.40
52036;DHT22;38046;49.448;32.074;2023-04-01T01:58:30;11.00;75.00
52036;DHT22;38046;49.448;32.074;2023-04-01T02:01:00;11.00;75.10
52036;DHT22;38046;49.448;32.074;2023-04-01T02:03:29;11.00;75.30
52036;DHT22;38046;49.448;32.074;2023-04-01T02:05:58;10.90;75.40
52036;DHT22;38046;49.448;32.074;2023-04-01T02:08:33;10.90;75.70
52036;DHT22;38046;49.448;32.074;2023-04-01T02:11:09;10.90;75.80
52036;DHT22;38046;49.448;32.074;2023-04-01T02:13:52;10.90;76.10
52036;DHT22;38046;49.448;32.074;2023-04-01T02:16:34;10.90;76.10
52036;DHT22;38046;49.448;32.074;2023-04-01T02:19:03;10.80;76.20
52036;DHT22;38046;49.448;32.074;2023-04-01T02:21:33;10.80;77.10
52036;DHT22;38046;49.448;32.074;2023-04-01T02:24:02;10.90;76.70
52036;DHT22;38046;49.448;32.074;2023-04-01T02:26:28;10.90;76.70
52036;DHT22;38046;49.448;32.074;2023-04-01T02:28:55;10.90;76.80
52036;DHT22;38046;49.448;32.074;2023-04-01T02:31:22;10.90;77.40
52036;DHT22;38046;49.448;32.074;2023-04-01T02:33:49;10.90;76.70
52036;DHT22;38046;49.448;32.074;2023-04-01T02:36:15;10.90;76.70
52036;DHT22;38046;49.448;32.074;2023-04-01T02:38:43;10.90;76.90
52036;DHT22;38046;49.448;32.074;2023-04-01T02:41:10;10.80;77.10
52036;DHT22;38046;49.448;32.074;2023-04-01T02:43:35;10.80;77.20
52036;DHT22;38046;49.448;32.074;2023-04-01T02:46:01;10.80;77.50
52036;DHT22;38046;49.448;32.074;2023-04-01T02:48:27;10.80;77.60
52036;DHT22;38046;49.448;32.074;2023-04-01T02:50:53;10.70;77.70
52036;DHT22;38046;49.448;32.074;2023-04-01T02:53:19;10.70;77.90
52036;DHT22;38046;49.448;32.074;2023-04-01T02:55:44;10.70;78.10
52036;DHT22;38046;49.448;32.074;2023-04-01T02:58:10;10.60;78.30
52036;DHT22;38046;49.448;32.074;2023-04-01T03:00:37;10.60;78.40
52036;DHT22;38046;49.448;32.074;2023-04-01T03:03:03;10.60;78.50
52036;DHT22;38046;49.448;32.074;2023-04-01T03:05:28;10.60;78.40
52036;DHT22;38046;49.448;32.074;2023-04-01T03:07:54;10.60;78.50
52036;DHT22;38046;49.448;32.074;2023-04-01T03:10:20;10.60;78.60
52036;DHT22;38046;49.448;32.074;2023-04-01T03:12:46;10.60;78.70
52036;DHT22;38046;49.448;32.074;2023-04-01T03:15:14;10.60;78.80
52036;DHT22;38046;49.448;32.074;2023-04-01T03:17:41;10.60;78.80
52036;DHT22;38046;49.448;32.074;2023-04-01T03:20:08;10.60;78.90
52036;DHT22;38046;49.448;32.074;2023-04-01T03:22:36;10.60;79.00
52036;DHT22;38046;49.448;32.074;2023-04-01T03:25:03;10.60;79.10
52036;DHT22;38046;49.448;32.074;2023-04-01T03:27:29;10.50;79.10
52036;DHT22;38046;49.448;32.074;2023-04-01T03:29:54;10.50;79.10
52036;DHT22;38046;49.448;32.074;2023-04-01T03:32:20;10.50;79.30
52036;DHT22;38046;49.448;32.074;2023-04-01T03:34:46;10.40;79.40
52036;DHT22;38046;49.448;32.074;2023-04-01T03:37:11;10.40;79.60
52036;DHT22;38046;49.448;32.074;2023-04-01T03:39:37;10.40;79.70
52036;DHT22;38046;49.448;32.074;2023-04-01T03:42:03;10.40;79.70
52036;DHT22;38046;49.448;32.074;2023-04-01T03:44:32;10.50;79.70
52036;DHT22;38046;49.448;32.074;2023-04-01T03:46:58;10.50;79.50
52036;DHT22;38046;49.448;32.074;2023-04-01T03:49:24;10.50;79.40
52036;DHT22;38046;49.448;32.074;2023-04-01T03:51:49;10.50;80.10
52036;DHT22;38046;49.448;32.074;2023-04-01T03:54:15;10.60;79.50
52036;DHT22;38046;49.448;32.074;2023-04-01T03:56:42;10.50;79.60
52036;DHT22;38046;49.448;32.074;2023-04-01T03:59:08;10.60;79.60
52036;DHT22;38046;49.448;32.074;2023-04-01T04:01:34;10.60;79.60
52036;DHT22;38046;49.448;32.074;2023-04-01T04:03:59;10.60;80.20
52036;DHT22;38046;49.448;32.074;2023-04-01T04:06:26;10.70;79.70
52036;DHT22;38046;49.448;32.074;2023-04-01T04:08:52;10.70;79.50
52036;DHT22;38046;49.448;32.074;2023-04-01T04:11:18;10.80;79.50
52036;DHT22;38046;49.448;32.074;2023-04-01T04:13:44;10.80;79.20
52036;DHT22;38046;49.448;32.074;2023-04-01T04:16:10;10.90;79.20
52036;DHT22;38046;49.448;32.074;2023-04-01T04:18:37;10.90;78.90
52036;DHT22;38046;49.448;32.074;2023-04-01T04:21:03;11.00;78.90
52036;DHT22;38046;49.448;32.074;2023-04-01T04:23:29;11.00;78.90
52036;DHT22;38046;49.448;32.074;2023-04-01T04:26:05;11.00;78.90
52036;DHT22;38046;49.448;32.074;2023-04-01T04:28:31;11.00;78.90
52036;DHT22;38046;49.448;32.074;2023-04-01T04:30:58;11.00;79.00
52036;DHT22;38046;49.448;32.074;2023-04-01T04:33:24;11.00;78.90
52036;DHT22;38046;49.448;32.074;2023-04-01T04:35:50;11.10;78.90
52036;DHT22;38046;49.448;32.074;2023-04-01T04:38:16;11.10;79.00
52036;DHT22;38046;49.448;32.074;2023-04-01T04:40:43;11.00;78.90
52036;DHT22;38046;49.448;32.074;2023-04-01T04:43:13;11.00;79.20
52036;DHT22;38046;49.448;32.074;2023-04-01T04:45:40;11.10;79.10
52036;DHT22;38046;49.448;32.074;2023-04-01T04:48:11;11.00;79.00
52036;DHT22;38046;49.448;32.074;2023-04-01T04:50:42;11.10;79.00
52036;DHT22;38046;49.448;32.074;2023-04-01T04:53:18;11.10;78.80
52036;DHT22;38046;49.448;32.074;2023-04-01T04:55:48;11.10;78.50
52036;DHT22;38046;49.448;32.074;2023-04-01T04:58:14;11.10;78.90
52036;DHT22;38046;49.448;32.074;2023-04-01T05:00:40;11.10;78.20
52036;DHT22;38046;49.448;32.074;2023-04-01T05:03:06;11.10;78.10
52036;DHT22;38046;49.448;32.074;2023-04-01T05:05:31;11.10;78.30
52036;DHT22;38046;49.448;32.074;2023-04-01T05:07:57;11.00;78.10
52036;DHT22;38046;49.448;32.074;2023-04-01T05:10:23;11.00;78.00
52036;DHT22;38046;49.448;32.074;2023-04-01T05:12:48;11.00;78.20
52036;DHT22;38046;49.448;32.074;2023-04-01T05:15:14;11.00;78.30
52036;DHT22;38046;49.448;32.074;2023-04-01T05:17:40;10.90;78.60
52036;DHT22;38046;49.448;32.074;2023-04-01T05:20:06;10.90;78.90
52036;DHT22;38046;49.448;32.074;2023-04-01T05:22:32;10.90;79.20
52036;DHT22;38046;49.448;32.074;2023-04-01T05:24:58;10.90;79.20
52036;DHT22;38046;49.448;32.074;2023-04-01T05:27:23;10.90;79.20
52036;DHT22;38046;49.448;32.074;2023-04-01T05:29:49;10.90;79.20
52036;DHT22;38046;49.448;32.074;2023-04-01T05:32:15;11.00;79.30
52036;DHT22;38046;49.448;32.074;2023-04-01T05:34:41;10.90;79.00
52036;DHT22;38046;49.448;32.074;2023-04-01T05:37:06;11.00;79.10
52036;DHT22;38046;49.448;32.074;2023-04-01T05:39:36;10.90;78.90
52036;DHT22;38046;49.448;32.074;2023-04-01T05:42:03;11.00;79.00
52036;DHT22;38046;49.448;32.074;2023-04-01T05:44:30;11.00;79.20
52036;DHT22;38046;49.448;32.074;2023-04-01T05:46:56;11.00;79.30
52036;DHT22;38046;49.448;32.074;2023-04-01T05:49:21;11.00;79.20
52036;DHT22;38046;49.448;32.074;2023-04-01T05:51:47;11.00;79.30
52036;DHT22;38046;49.448;32.074;2023-04-01T05:54:13;11.10;79.10
52036;DHT22;38046;49.448;32.074;2023-04-01T05:56:38;11.10;79.20
52036;DHT22;38046;49.448;32.074;2023-04-01T05:59:04;11.20;79.20
52036;DHT22;38046;49.448;32.074;2023-04-01T06:01:30;11.20;79.10
52036;DHT22;38046;49.448;32.074;2023-04-01T06:03:55;11.20;79.00
52036;DHT22;38046;49.448;32.074;2023-04-01T06:06:26;11.20;78.80
52036;DHT22;38046;49.448;32.074;2023-04-01T06:08:53;11.20;78.80
52036;DHT22;38046;49.448;32.074;2023-04-01T06:30:40;11.30;79.00
52036;DHT22;38046;49.448;32.074;2023-04-01T06:33:24;11.40;79.20
52036;DHT22;38046;49.448;32.074;2023-04-01T06:36:21;11.40;79.00
52036;DHT22;38046;49.448;32.074;2023-04-01T06:41:33;11.50;79.20
52036;DHT22;38046;49.448;32.074;2023-04-01T06:44:16;11.60;79.30
52036;DHT22;38046;49.448;32.074;2023-04-01T06:49:21;11.70;78.70
52036;DHT22;38046;49.448;32.074;2023-04-01T06:52:02;11.70;78.60
52036;DHT22;38046;49.448;32.074;2023-04-01T06:54:34;11.80;78.60
52036;DHT22;38046;49.448;32.074;2023-04-01T06:59:47;11.90;78.20
52036;DHT22;38046;49.448;32.074;2023-04-01T07:02:32;12.00;78.20
52036;DHT22;38046;49.448;32.074;2023-04-01T07:05:00;12.00;78.10
52036;DHT22;38046;49.448;32.074;2023-04-01T07:10:04;12.10;77.70
52036;DHT22;38046;49.448;32.074;2023-04-01T07:14:58;12.10;77.50
52036;DHT22;38046;49.448;32.074;2023-04-01T07:17:30;12.20;77.50
52036;DHT22;38046;49.448;32.074;2023-04-01T07:22:38;12.20;77.50
52036;DHT22;38046;49.448;32.074;2023-04-01T07:25:22;12.20;77.20
52036;DHT22;38046;49.448;32.074;2023-04-01T07:27:53;12.20;77.20
52036;DHT22;38046;49.448;32.074;2023-04-01T07:30:22;12.30;77.20
52036;DHT22;38046;49.448;32.074;2023-04-01T07:33:05;12.40;77.00
52036;DHT22;38046;49.448;32.074;2023-04-01T07:35:46;12.40;76.60
52036;DHT22;38046;49.448;32.074;2023-04-01T07:41:44;12.30;76.50
52036;DHT22;38046;49.448;32.074;2023-04-01T07:49:25;12.30;77.00
52036;DHT22;38046;49.448;32.074;2023-04-01T07:52:24;12.40;77.10
52036;DHT22;38046;49.448;32.074;2023-04-01T08:00:30;12.60;76.90
52036;DHT22;38046;49.448;32.074;2023-04-01T08:05:53;12.80;76.50
52036;DHT22;38046;49.448;32.074;2023-04-01T08:14:09;12.90;75.50
52036;DHT22;38046;49.448;32.074;2023-04-01T08:17:04;12.90;75.30
52036;DHT22;38046;49.448;32.074;2023-04-01T08:23:36;13.10;75.70
52036;DHT22;38046;49.448;32.074;2023-04-01T08:25:40;13.20;75.60
52036;DHT22;38046;49.448;32.074;2023-04-01T08:28:13;13.30;75.40
52036;DHT22;38046;49.448;32.074;2023-04-01T08:30:54;13.40;75.20
52036;DHT22;38046;49.448;32.074;2023-04-01T08:33:25;13.50;75.10
52036;DHT22;38046;49.448;32.074;2023-04-01T08:36:00;13.60;74.80
52036;DHT22;38046;49.448;32.074;2023-04-01T08:38:36;13.70;74.30
52036;DHT22;38046;49.448;32.074;2023-04-01T08:44:29;13.80;74.10
52036;DHT22;38046;49.448;32.074;2023-04-01T08:47:24;13.90;74.10
52036;DHT22;38046;49.448;32.074;2023-04-01T09:04:37;14.30;72.80
52036;DHT22;38046;49.448;32.074;2023-04-01T09:16:54;14.50;72.50
52036;DHT22;38046;49.448;32.074;2023-04-01T09:18:59;14.60;72.60
52036;DHT22;38046;49.448;32.074;2023-04-01T09:22:04;14.70;72.40
52036;DHT22;38046;49.448;32.074;2023-04-01T09:27:29;14.90;72.00
52036;DHT22;38046;49.448;32.074;2023-04-01T09:35:47;15.20;71.00
52036;DHT22;38046;49.448;32.074;2023-04-01T09:38:23;15.30;70.50
52036;DHT22;38046;49.448;32.074;2023-04-01T09:40:58;15.30;70.30
52036;DHT22;38046;49.448;32.074;2023-04-01T09:43:37;15.30;70.00
52036;DHT22;38046;49.448;32.074;2023-04-01T09:49:17;15.30;69.70
52036;DHT22;38046;49.448;32.074;2023-04-01T09:52:05;15.30;69.70
52036;DHT22;38046;49.448;32.074;2023-04-01T10:02:35;15.50;69.30
52036;DHT22;38046;49.448;32.074;2023-04-01T10:14:03;15.60;68.60
52036;DHT22;38046;49.448;32.074;2023-04-01T10:22:29;15.80;67.80
52036;DHT22;38046;49.448;32.074;2023-04-01T10:28:06;15.80;67.30
52036;DHT22;38046;49.448;32.074;2023-04-01T10:36:14;15.80;66.90
52036;DHT22;38046;49.448;32.074;2023-04-01T10:53:36;13.70;68.50
52036;DHT22;38046;49.448;32.074;2023-04-01T11:04:32;13.00;70.50
52036;DHT22;38046;49.448;32.074;2023-04-01T11:07:18;12.90;71.00
52036;DHT22;38046;49.448;32.074;2023-04-01T11:10:25;12.80;71.40
52036;DHT22;38046;49.448;32.074;2023-04-01T11:13:21;12.80;71.60
52036;DHT22;38046;49.448;32.074;2023-04-01T11:30:02;13.00;72.60
52036;DHT22;38046;49.448;32.074;2023-04-01T11:51:57;14.30;71.20
52036;DHT22;38046;49.448;32.074;2023-04-01T11:57:35;14.70;70.50
52036;DHT22;38046;49.448;32.074;2023-04-01T12:03:10;15.10;69.50
52036;DHT22;38046;49.448;32.074;2023-04-01T12:11:41;15.40;68.30
52036;DHT22;38046;49.448;32.074;2023-04-01T12:14:22;15.50;68.00
52036;DHT22;38046;49.448;32.074;2023-04-01T12:26:15;15.70;67.10
52036;DHT22;38046;49.448;32.074;2023-04-01T12:37:28;15.80;66.50
52036;DHT22;38046;49.448;32.074;2023-04-01T12:49:15;15.80;66.10
52036;DHT22;38046;49.448;32.074;2023-04-01T13:09:03;16.00;65.30
52036;DHT22;38046;49.448;32.074;2023-04-01T13:16:25;16.10;64.80
52036;DHT22;38046;49.448;32.074;2023-04-01T13:19:12;16.10;64.70
52036;DHT22;38046;49.448;32.074;2023-04-01T13:22:07;16.20;64.60
52036;DHT22;38046;49.448;32.074;2023-04-01T13:27:40;16.20;64.30
52036;DHT22;38046;49.448;32.074;2023-04-01T13:30:24;16.20;64.20
52036;DHT22;38046;49.448;32.074;2023-04-01T13:33:01;16.20;64.30
52036;DHT22;38046;49.448;32.074;2023-04-01T13:41:33;16.20;64.00
52036;DHT22;38046;49.448;32.074;2023-04-01T13:55:07;15.90;63.80
52036;DHT22;38046;49.448;32.074;2023-04-01T14:00:50;15.90;64.00
52036;DHT22;38046;49.448;32.074;2023-04-01T14:03:40;15.90;64.00
52036;DHT22;38046;49.448;32.074;2023-04-01T14:30:33;15.90;63.30
52036;DHT22;38046;49.448;32.074;2023-04-01T14:33:42;15.90;63.30
52036;DHT22;38046;49.448;32.074;2023-04-01T14:36:30;15.90;63.40
52036;DHT22;38046;49.448;32.074;2023-04-01T14:39:07;16.00;63.40
52036;DHT22;38046;49.448;32.074;2023-04-01T14:44:36;16.00;63.40
52036;DHT22;38046;49.448;32.074;2023-04-01T14:47:43;16.00;63.30
52036;DHT22;38046;49.448;32.074;2023-04-01T14:50:16;16.00;63.20
52036;DHT22;38046;49.448;32.074;2023-04-01T14:52:52;16.00;63.20
52036;DHT22;38046;49.448;32.074;2023-04-01T14:55:21;15.90;63.20
52036;DHT22;38046;49.448;32.074;2023-04-01T14:58:08;15.80;63.00
52036;DHT22;38046;49.448;32.074;2023-04-01T15:23:01;15.20;63.70
52036;DHT22;38046;49.448;32.074;2023-04-01T15:31:01;15.00;64.00
52036;DHT22;38046;49.448;32.074;2023-04-01T15:43:54;14.80;64.60
52036;DHT22;38046;49.448;32.074;2023-04-01T15:49:18;14.70;64.80
52036;DHT22;38046;49.448;32.074;2023-04-01T15:54:37;14.60;64.90
52036;DHT22;38046;49.448;32.074;2023-04-01T15:57:15;14.60;65.00
52036;DHT22;38046;49.448;32.074;2023-04-01T16:05:37;14.40;65.20
52036;DHT22;38046;49.448;32.074;2023-04-01T16:16:37;14.20;65.40
52036;DHT22;38046;49.448;32.074;2023-04-01T16:25:07;14.20;66.40
52036;DHT22;38046;49.448;32.074;2023-04-01T16:27:49;14.10;65.80
52036;DHT22;38046;49.448;32.074;2023-04-01T16:35:37;14.10;66.20
52036;DHT22;38046;49.448;32.074;2023-04-01T16:43:39;14.10;66.50
52036;DHT22;38046;49.448;32.074;2023-04-01T16:46:27;14.00;66.30
52036;DHT22;38046;49.448;32.074;2023-04-01T16:54:06;13.80;66.50
52036;DHT22;38046;49.448;32.074;2023-04-01T16:56:56;13.80;66.70
52036;DHT22;38046;49.448;32.074;2023-04-01T17:07:47;13.70;67.90
52036;DHT22;38046;49.448;32.074;2023-04-01T17:16:06;13.60;67.60
52036;DHT22;38046;49.448;32.074;2023-04-01T17:18:58;13.60;67.70
52036;DHT22;38046;49.448;32.074;2023-04-01T17:21:47;13.50;67.80
52036;DHT22;38046;49.448;32.074;2023-04-01T17:27:35;13.50;68.20
52036;DHT22;38046;49.448;32.074;2023-04-01T17:30:25;13.50;68.40
52036;DHT22;38046;49.448;32.074;2023-04-01T17:42:35;13.40;68.70
52036;DHT22;38046;49.448;32.074;2023-04-01T17:45:03;13.40;68.80
52036;DHT22;38046;49.448;32.074;2023-04-01T17:53:53;13.30;69.20
52036;DHT22;38046;49.448;32.074;2023-04-01T17:59:18;13.30;69.60
52036;DHT22;38046;49.448;32.074;2023-04-01T18:01:46;13.30;69.70
52036;DHT22;38046;49.448;32.074;2023-04-01T18:18:26;13.20;70.10
52036;DHT22;38046;49.448;32.074;2023-04-01T18:24:00;13.20;70.40
52036;DHT22;38046;49.448;32.074;2023-04-01T18:26:33;13.20;70.60
52036;DHT22;38046;49.448;32.074;2023-04-01T18:29:11;13.10;70.70
52036;DHT22;38046;49.448;32.074;2023-04-01T18:31:47;13.10;71.10
52036;DHT22;38046;49.448;32.074;2023-04-01T18:39:50;13.10;71.60
52036;DHT22;38046;49.448;32.074;2023-04-01T18:50:43;12.80;71.90
52036;DHT22;38046;49.448;32.074;2023-04-01T19:04:38;12.10;73.20
52036;DHT22;38046;49.448;32.074;2023-04-01T19:07:43;11.90;73.70
52036;DHT22;38046;49.448;32.074;2023-04-01T19:16:24;11.50;75.30
52036;DHT22;38046;49.448;32.074;2023-04-01T19:21:55;11.30;76.20
52036;DHT22;38046;49.448;32.074;2023-04-01T19:36:19;11.10;77.80
52036;DHT22;38046;49.448;32.074;2023-04-01T19:39:10;11.10;78.10
52036;DHT22;38046;49.448;32.074;2023-04-01T19:41:53;11.10;78.40
52036;DHT22;38046;49.448;32.074;2023-04-01T19:52:47;11.10;78.70
52036;DHT22;38046;49.448;32.074;2023-04-01T19:55:46;11.10;79.10
52036;DHT22;38046;49.448;32.074;2023-04-01T20:01:04;11.10;79.70
52036;DHT22;38046;49.448;32.074;2023-04-01T20:03:57;11.10;80.00
52036;DHT22;38046;49.448;32.074;2023-04-01T20:06:43;11.10;80.20
52036;DHT22;38046;49.448;32.074;2023-04-01T20:11:59;11.10;80.50
52036;DHT22;38046;49.448;32.074;2023-04-01T20:14:57;11.10;80.70
52036;DHT22;38046;49.448;32.074;2023-04-01T20:17:44;11.10;80.90
52036;DHT22;38046;49.448;32.074;2023-04-01T20:25:23;11.10;81.70
52036;DHT22;38046;49.448;32.074;2023-04-01T20:27:58;11.10;82.00
52036;DHT22;38046;49.448;32.074;2023-04-01T20:34:02;11.00;82.40
52036;DHT22;38046;49.448;32.074;2023-04-01T20:42:24;11.00;83.20
52036;DHT22;38046;49.448;32.074;2023-04-01T20:53:29;11.10;84.80
52036;DHT22;38046;49.448;32.074;2023-04-01T20:56:16;11.10;84.30
52036;DHT22;38046;49.448;32.074;2023-04-01T20:59:02;11.10;84.40
52036;DHT22;38046;49.448;32.074;2023-04-01T21:13:31;11.30;84.50
52036;DHT22;38046;49.448;32.074;2023-04-01T21:27:35;11.20;83.80
52036;DHT22;38046;49.448;32.074;2023-04-01T21:33:49;11.20;84.40
52036;DHT22;38046;49.448;32.074;2023-04-01T21:36:16;11.20;83.70
52036;DHT22;38046;49.448;32.074;2023-04-01T21:38:58;11.10;83.70
52036;DHT22;38046;49.448;32.074;2023-04-01T21:41:35;11.10;83.90
52036;DHT22;38046;49.448;32.074;2023-04-01T21:44:38;11.10;83.90
52036;DHT22;38046;49.448;32.074;2023-04-01T21:50:11;11.10;84.20
52036;DHT22;38046;49.448;32.074;2023-04-01T22:01:11;11.00;84.50
52036;DHT22;38046;49.448;32.074;2023-04-01T22:09:10;10.90;83.80
52036;DHT22;38046;49.448;32.074;2023-04-01T22:14:37;10.80;84.20
52036;DHT22;38046;49.448;32.074;2023-04-01T22:17:21;10.70;84.40
52036;DHT22;38046;49.448;32.074;2023-04-01T22:31:12;10.70;84.60
52036;DHT22;38046;49.448;32.074;2023-04-01T22:33:46;10.60;84.90
52036;DHT22;38046;49.448;32.074;2023-04-01T22:42:19;10.60;86.00
52036;DHT22;38046;49.448;32.074;2023-04-01T22:47:22;10.60;86.00
52036;DHT22;38046;49.448;32.074;2023-04-01T22:50:17;10.60;85.90
52036;DHT22;38046;49.448;32.074;2023-04-01T22:52:47;10.50;85.90
52036;DHT22;38046;49.448;32.074;2023-04-01T22:55:23;10.40;85.90
52036;DHT22;38046;49.448;32.074;2023-04-01T22:58:01;10.40;86.10
52036;DHT22;38046;49.448;32.074;2023-04-01T23:00:36;10.30;86.20
52036;DHT22;38046;49.448;32.074;2023-04-01T23:03:28;10.30;86.50
52036;DHT22;38046;49.448;32.074;2023-04-01T23:06:00;10.20;86.90
52036;DHT22;38046;49.448;32.074;2023-04-01T23:11:02;10.20;87.90
52036;DHT22;38046;49.448;32.074;2023-04-01T23:13:36;10.20;87.90
52036;DHT22;38046;49.448;32.074;2023-04-01T23:16:07;10.20;88.00
52036;DHT22;38046;49.448;32.074;2023-04-01T23:18:48;10.30;88.20
52036;DHT22;38046;49.448;32.074;2023-04-01T23:27:01;10.20;88.20
52036;DHT22;38046;49.448;32.074;2023-04-01T23:29:28;10.20;88.30
52036;DHT22;38046;49.448;32.074;2023-04-01T23:32:01;10.30;88.60
52036;DHT22;38046;49.448;32.074;2023-04-01T23:34:34;10.30;88.60
52036;DHT22;38046;49.448;32.074;2023-04-01T23:37:08;10.40;88.70
52036;DHT22;38046;49.448;32.074;2023-04-01T23:39:40;10.40;88.60
52036;DHT22;38046;49.448;32.074;2023-04-01T23:42:18;10.40;88.40
52036;DHT22;38046;49.448;32.074;2023-04-01T23:44:46;10.40;88.20
52036;DHT22;38046;49.448;32.074;2023-04-01T23:47:21;10.40;88.40
52036;DHT22;38046;49.448;32.074;2023-04-01T23:50:00;10.40;88.50
52036;DHT22;38046;49.448;32.074;2023-04-01T23:52:30;10.40;88.60
52036;DHT22;38046;49.448;32.074;2023-04-01T23:55:03;10.40;89.40
52036;DHT22;38046;49.448;32.074;2023-04-01T23:57:34;10.50;88.60
